Time;durP1;ratioP1;P1;durP2;ratioP2;P2;SDS_P1;SDS_P2;PMS_P1;PMS_P2;Temp;Humidity;BMP_temperature;BMP_pressure;BME280_temperature;BME280_humidity;BME280_pressure;Samples;Min_cycle;Max_cycle;Signal;HPM_P1;HPM_P2
2022/10/21 00:01:32;;;;;;;37.13;18.83;;;;;;;13.19;100.00;100739.41;5083324;28;20035;-67
2022/10/21 00:04:01;;;;;;;43.60;20.60;;;;;;;13.20;100.00;100730.44;5083986;28;20790;-68
2022/10/21 00:06:27;;;;;;;41.35;18.08;;;;;;;13.28;100.00;100735.22;5060188;28;20454;-67
2022/10/21 00:08:52;;;;;;;38.97;19.80;;;;;;;13.25;100.00;100731.91;5075934;28;20036;-68
2022/10/21 00:11:17;;;;;;;38.63;17.83;;;;;;;13.29;100.00;100725.34;5079970;28;20097;-68
2022/10/21 00:13:43;;;;;;;35.75;19.35;;;;;;;13.25;100.00;100738.09;5082324;28;20043;-69
2022/10/21 00:16:15;;;;;;;45.83;18.92;;;;;;;13.34;100.00;100726.69;5082360;28;20043;-67
2022/10/21 00:18:42;;;;;;;38.28;19.13;;;;;;;13.37;100.00;100739.88;5073413;28;20037;-69
2022/10/21 00:21:11;;;;;;;36.50;19.10;;;;;;;13.39;100.00;100726.34;5077978;28;20070;-68
2022/10/21 00:23:37;;;;;;;40.90;19.85;;;;;;;13.43;100.00;100735.84;5080471;28;20063;-67
2022/10/21 00:26:03;;;;;;;40.58;18.77;;;;;;;13.43;100.00;100735.84;5080373;28;20133;-67
2022/10/21 00:28:29;;;;;;;34.42;18.25;;;;;;;13.43;100.00;100746.56;5097129;28;20039;-69
2022/10/21 00:30:55;;;;;;;42.38;19.77;;;;;;;13.40;100.00;100738.75;5081921;28;20039;-66
2022/10/21 00:33:20;;;;;;;46.97;18.05;;;;;;;13.41;100.00;100736.00;5075387;28;20039;-68
2022/10/21 00:35:51;;;;;;;35.20;18.88;;;;;;;13.41;100.00;100730.63;5074482;28;20044;-68
2022/10/21 00:38:16;;;;;;;39.47;19.35;;;;;;;13.42;100.00;100726.97;5073053;28;20048;-67
2022/10/21 00:40:42;;;;;;;42.53;19.23;;;;;;;13.39;100.00;100737.06;5082443;28;20436;-68
2022/10/21 00:43:10;;;;;;;39.45;19.13;;;;;;;13.39;100.00;100721.84;5074985;28;20051;-67
2022/10/21 00:45:35;;;;;;;46.70;19.85;;;;;;;13.40;100.00;100722.69;5083038;28;20118;-68
2022/10/21 00:48:03;;;;;;;40.42;19.58;;;;;;;13.39;100.00;100721.00;5072629;28;20042;-67
2022/10/21 00:50:48;;;;;;;37.75;20.08;;;;;;;13.36;100.00;100716.75;5080883;28;20055;-67
2022/10/21 00:53:15;;;;;;;41.97;19.40;;;;;;;13.36;100.00;100723.94;5080693;28;20216;-67
2022/10/21 00:55:47;;;;;;;41.97;18.65;;;;;;;13.34;100.00;100715.97;5056641;28;20043;-67
2022/10/21 00:58:15;;;;;;;45.28;20.80;;;;;;;13.30;100.00;100711.84;5074745;28;20051;-68
2022/10/21 01:00:41;;;;;;;50.70;21.33;;;;;;;13.28;100.00;100711.09;5080583;28;20477;-68
2022/10/21 01:03:07;;;;;;;45.35;20.70;;;;;;;13.25;100.00;100707.81;5079783;28;20047;-67
2022/10/21 01:05:36;;;;;;;49.13;21.60;;;;;;;13.26;100.00;100705.03;5071511;28;20484;-69
2022/10/21 01:08:02;;;;;;;46.70;21.60;;;;;;;13.24;100.00;100711.47;5074408;28;20142;-67
2022/10/21 01:10:27;;;;;;;46.35;21.60;;;;;;;13.25;100.00;100716.69;5072898;28;20433;-68
2022/10/21 01:13:11;;;;;;;42.53;20.95;;;;;;;13.29;100.00;100712.81;5079288;28;20086;-67
2022/10/21 01:16:18;;;;;;;49.10;21.77;;;;;;;13.31;100.00;100704.69;5070983;28;20102;-68
2022/10/21 01:18:57;;;;;;;42.58;21.92;;;;;;;13.29;100.00;100702.09;5036887;28;20646;-68
2022/10/21 01:21:35;;;;;;;47.45;21.42;;;;;;;13.31;100.00;100693.97;5036294;28;20040;-67
2022/10/21 01:24:51;;;;;;;50.30;22.75;;;;;;;13.30;100.00;100695.75;5040629;28;20386;-68
2022/10/21 01:28:02;;;;;;;50.28;21.88;;;;;;;13.20;100.00;100694.72;5016423;28;20052;-66
2022/10/21 01:30:36;;;;;;;54.40;23.88;;;;;;;13.27;100.00;100692.50;4976285;28;20060;-67
2022/10/21 01:33:16;;;;;;;50.40;22.83;;;;;;;13.35;100.00;100688.22;4966095;28;20730;-69
2022/10/21 01:35:51;;;;;;;59.47;23.58;;;;;;;13.28;100.00;100686.16;4961903;28;20057;-68
2022/10/21 01:38:19;;;;;;;53.38;24.48;;;;;;;13.23;100.00;100689.19;4961639;28;20517;-68
2022/10/21 01:41:07;;;;;;;55.03;24.75;;;;;;;13.11;100.00;100688.28;4961934;28;20181;-67
2022/10/21 01:44:09;;;;;;;60.90;24.13;;;;;;;13.18;100.00;100680.63;4970752;28;20051;-67
2022/10/21 01:46:48;;;;;;;56.35;24.70;;;;;;;13.12;100.00;100678.41;4904745;29;20107;-67
2022/10/21 01:49:28;;;;;;;61.17;24.13;;;;;;;13.09;100.00;100674.13;4930208;28;20471;-68
2022/10/21 01:51:54;;;;;;;63.20;24.95;;;;;;;13.17;100.00;100673.56;4959195;28;20050;-68
2022/10/21 01:54:26;;;;;;;63.47;24.50;;;;;;;13.10;100.00;100666.97;4943120;28;20050;-68
2022/10/21 01:56:52;;;;;;;61.50;25.75;;;;;;;13.03;100.00;100663.91;4958870;28;20134;-68
2022/10/21 01:59:20;;;;;;;62.97;24.90;;;;;;;13.06;100.00;100663.69;4960411;28;20062;-67
2022/10/21 02:01:47;;;;;;;63.00;25.77;;;;;;;13.08;100.00;100652.84;4971495;28;20047;-68
2022/10/21 02:04:16;;;;;;;62.05;25.23;;;;;;;13.06;100.00;100666.38;4998798;28;20049;-68
2022/10/21 02:06:42;;;;;;;62.55;24.92;;;;;;;12.95;100.00;100658.28;5035035;28;21016;-69
2022/10/21 02:09:07;;;;;;;62.10;25.88;;;;;;;13.07;100.00;100645.78;5030954;28;20162;-68
2022/10/21 02:11:36;;;;;;;68.95;27.17;;;;;;;13.05;100.00;100643.25;5030009;28;20099;-68
2022/10/21 02:14:08;;;;;;;52.80;24.50;;;;;;;13.04;100.00;100640.66;5033839;28;20095;-69
2022/10/21 02:16:38;;;;;;;58.33;24.65;;;;;;;13.01;100.00;100635.56;5031992;28;20418;-68
2022/10/21 02:19:05;;;;;;;52.75;23.48;;;;;;;13.03;100.00;100629.09;5037450;28;20037;-69
2022/10/21 02:21:35;;;;;;;57.33;25.85;;;;;;;13.01;100.00;100622.19;5026084;28;20053;-68
2022/10/21 02:24:14;;;;;;;65.30;26.52;;;;;;;13.06;100.00;100617.31;5075510;28;20666;-67
2022/10/21 02:26:40;;;;;;;60.00;24.30;;;;;;;13.03;100.00;100617.56;5075242;28;21028;-67
2022/10/21 02:29:05;;;;;;;64.80;26.25;;;;;;;13.01;100.00;100616.84;5079768;28;20138;-67
2022/10/21 02:31:39;;;;;;;59.10;25.23;;;;;;;13.01;100.00;100606.97;5078599;28;20035;-68
2022/10/21 02:34:16;;;;;;;59.67;25.17;;;;;;;12.96;100.00;100609.16;5073114;28;20503;-67
2022/10/21 02:37:04;;;;;;;63.92;26.33;;;;;;;12.87;100.00;100618.72;5079395;28;20055;-67
2022/10/21 02:39:42;;;;;;;62.80;25.95;;;;;;;12.81;100.00;100618.34;5079901;28;20082;-67
2022/10/21 02:42:13;;;;;;;54.13;24.50;;;;;;;12.86;100.00;100608.16;5081022;28;20040;-67
2022/10/21 02:44:38;;;;;;;63.45;24.80;;;;;;;12.82;100.00;100604.84;5083411;28;20116;-69
2022/10/21 02:47:04;;;;;;;59.47;24.08;;;;;;;12.71;100.00;100610.19;5083627;28;20028;-68
2022/10/21 02:49:29;;;;;;;60.08;24.00;;;;;;;12.66;100.00;100615.88;5082447;28;20098;-70
2022/10/21 02:51:55;;;;;;;60.03;24.77;;;;;;;12.59;100.00;100611.94;5083981;28;20078;-70
2022/10/21 02:54:21;;;;;;;54.53;22.45;;;;;;;12.58;100.00;100612.06;5083469;28;20039;-70
2022/10/21 02:56:46;;;;;;;59.65;21.95;;;;;;;12.71;100.00;100610.19;5077129;28;20036;-67
2022/10/21 02:59:12;;;;;;;57.97;22.10;;;;;;;12.65;100.00;100605.25;5084148;28;20035;-68
2022/10/21 03:01:37;;;;;;;55.38;22.88;;;;;;;12.59;100.00;100603.91;5075642;28;20060;-68
2022/10/21 03:04:03;;;;;;;56.63;23.50;;;;;;;12.60;100.00;100607.44;5098419;28;20048;-68
2022/10/21 03:06:30;;;;;;;60.53;22.95;;;;;;;12.61;100.00;100612.69;5082910;28;20044;-69
2022/10/21 03:08:55;;;;;;;52.15;22.77;;;;;;;12.64;100.00;100608.91;5075744;28;20037;-66
2022/10/21 03:11:22;;;;;;;53.30;22.98;;;;;;;12.57;100.00;100611.22;5081955;28;20689;-68
2022/10/21 03:13:47;;;;;;;62.15;23.77;;;;;;;12.57;100.00;100607.69;5083230;28;20028;-68
2022/10/21 03:16:12;;;;;;;46.75;22.55;;;;;;;12.54;100.00;100615.94;5080629;28;20396;-66
2022/10/21 03:18:38;;;;;;;55.03;20.80;;;;;;;12.68;100.00;100605.03;5078817;28;20966;-68
2022/10/21 03:21:03;;;;;;;54.83;21.88;;;;;;;12.65;100.00;100595.44;5081038;28;20047;-67
2022/10/21 03:23:29;;;;;;;54.80;23.08;;;;;;;12.69;100.00;100602.25;5083223;28;20047;-68
2022/10/21 03:25:54;;;;;;;59.25;21.20;;;;;;;12.76;100.00;100605.31;5083188;28;20105;-67
2022/10/21 03:28:20;;;;;;;51.92;22.25;;;;;;;12.67;100.00;100616.72;5081804;28;20051;-67
2022/10/21 03:30:45;;;;;;;57.50;21.63;;;;;;;12.71;100.00;100607.50;5081845;28;20036;-68
2022/10/21 03:33:11;;;;;;;48.00;21.58;;;;;;;12.68;100.00;100610.41;5059242;28;20033;-68
2022/10/21 03:35:36;;;;;;;58.63;21.95;;;;;;;12.58;100.00;100612.91;5081792;28;20043;-68
2022/10/21 03:38:01;;;;;;;54.63;22.77;;;;;;;12.71;100.00;100604.81;5083760;28;20039;-68
2022/10/21 03:40:29;;;;;;;56.13;23.13;;;;;;;12.62;100.00;100603.69;5083732;28;20074;-67
2022/10/21 03:42:55;;;;;;;52.45;23.60;;;;;;;12.58;100.00;100602.22;5073091;28;20841;-67
2022/10/21 03:45:21;;;;;;;50.95;21.55;;;;;;;12.60;100.00;100599.41;5082387;28;20051;-67
2022/10/21 03:47:46;;;;;;;51.60;21.73;;;;;;;12.54;100.00;100608.75;5079782;28;20039;-68
2022/10/21 03:50:12;;;;;;;55.92;21.85;;;;;;;12.39;100.00;100600.06;5082083;28;20090;-68
2022/10/21 03:52:37;;;;;;;51.65;21.90;;;;;;;12.58;100.00;100591.50;5082503;28;20036;-68
2022/10/21 03:55:03;;;;;;;49.53;21.45;;;;;;;12.56;100.00;100595.28;5076984;28;20024;-68
2022/10/21 03:57:28;;;;;;;52.50;22.10;;;;;;;12.57;100.00;100587.13;5079178;28;20040;-67
2022/10/21 03:59:54;;;;;;;55.45;21.67;;;;;;;12.50;100.00;100593.06;5079584;28;20036;-68
2022/10/21 04:02:19;;;;;;;52.58;21.88;;;;;;;12.39;100.00;100602.75;5079714;28;20051;-68
2022/10/21 04:04:45;;;;;;;54.60;21.83;;;;;;;12.50;100.00;100595.72;5077203;28;20044;-67
2022/10/21 04:07:10;;;;;;;47.03;19.55;;;;;;;12.40;100.00;100593.78;5082165;28;20078;-68
2022/10/21 04:09:35;;;;;;;57.95;20.92;;;;;;;12.45;100.00;100593.44;5084130;28;20571;-68
2022/10/21 04:12:01;;;;;;;54.58;22.48;;;;;;;12.47;100.00;100588.81;5083436;28;20089;-68
2022/10/21 04:14:27;;;;;;;52.67;22.08;;;;;;;12.47;100.00;100588.81;5080074;28;20500;-68
2022/10/21 04:16:52;;;;;;;56.47;21.20;;;;;;;12.43;100.00;100588.16;5083458;28;20040;-68
2022/10/21 04:19:18;;;;;;;52.13;22.77;;;;;;;12.29;100.00;100583.00;5076686;28;20050;-69
2022/10/21 04:21:44;;;;;;;54.10;20.85;;;;;;;12.35;100.00;100582.56;5079305;28;20040;-68
2022/10/21 04:24:10;;;;;;;52.65;21.58;;;;;;;12.34;100.00;100588.84;5083556;28;20065;-68
2022/10/21 04:26:35;;;;;;;51.67;21.83;;;;;;;12.33;100.00;100588.97;5081687;28;20044;-67
2022/10/21 04:29:01;;;;;;;57.95;23.83;;;;;;;12.29;100.00;100585.69;5078058;28;20037;-69
2022/10/21 04:31:27;;;;;;;55.88;23.63;;;;;;;12.29;100.00;100587.50;5074740;28;20075;-68
2022/10/21 04:33:52;;;;;;;54.17;21.33;;;;;;;12.39;100.00;100583.16;5081987;28;20044;-67
2022/10/21 04:36:18;;;;;;;53.35;22.88;;;;;;;12.29;100.00;100577.66;5058134;28;20056;-68
2022/10/21 04:38:43;;;;;;;61.08;23.77;;;;;;;12.28;100.00;100575.09;5083501;28;20050;-68
2022/10/21 04:41:09;;;;;;;59.67;22.23;;;;;;;12.29;100.00;100585.69;5077844;28;20078;-67
2022/10/21 04:43:35;;;;;;;53.55;22.70;;;;;;;12.26;100.00;100585.06;5083380;28;20578;-68
2022/10/21 04:46:01;;;;;;;63.10;21.85;;;;;;;12.25;100.00;100584.22;5085844;28;20050;-68
2022/10/21 04:48:26;;;;;;;57.50;21.65;;;;;;;12.24;100.00;100585.16;5078929;28;20040;-68
2022/10/21 04:50:52;;;;;;;55.50;23.88;;;;;;;12.33;100.00;100588.97;5085582;28;20032;-69
2022/10/21 04:53:18;;;;;;;55.83;22.38;;;;;;;12.28;100.00;100583.97;5086495;28;20121;-67
2022/10/21 04:55:44;;;;;;;59.45;24.25;;;;;;;12.22;100.00;100581.75;5086741;28;20650;-67
2022/10/21 04:58:09;;;;;;;58.53;23.10;;;;;;;12.14;100.00;100581.47;5082315;28;20815;-66
2022/10/21 05:00:34;;;;;;;52.58;22.33;;;;;;;12.09;100.00;100586.31;5083409;28;20098;-66
2022/10/21 05:03:00;;;;;;;52.15;22.73;;;;;;;12.13;100.00;100580.63;5083010;28;20074;-67
2022/10/21 05:05:26;;;;;;;56.53;22.75;;;;;;;12.01;100.00;100581.53;5100348;28;20059;-70
2022/10/21 05:07:53;;;;;;;59.63;22.83;;;;;;;11.95;100.00;100568.63;5077808;28;20062;-68
2022/10/21 05:10:18;;;;;;;61.80;23.67;;;;;;;11.86;100.00;100577.31;5079656;28;20048;-68
2022/10/21 05:12:43;;;;;;;52.67;21.90;;;;;;;11.89;100.00;100585.94;5079474;28;20044;-67
2022/10/21 05:15:09;;;;;;;59.63;22.45;;;;;;;11.86;100.00;100590.69;5079728;28;20037;-68
2022/10/21 05:17:37;;;;;;;53.00;21.02;;;;;;;11.81;100.00;100582.97;5077409;28;20032;-67
2022/10/21 05:20:03;;;;;;;52.00;20.13;;;;;;;11.77;100.00;100584.16;5083114;28;20040;-68
2022/10/21 05:22:29;;;;;;;60.67;22.65;;;;;;;11.74;100.00;100579.00;5081001;28;20136;-68
2022/10/21 05:24:54;;;;;;;57.35;23.40;;;;;;;11.72;100.00;100586.28;5082804;28;20047;-67
2022/10/21 05:27:20;;;;;;;60.22;22.80;;;;;;;11.62;100.00;100586.09;5081758;28;20044;-68
2022/10/21 05:29:45;;;;;;;60.90;23.33;;;;;;;11.60;100.00;100587.19;5074345;28;20040;-68
2022/10/21 05:32:11;;;;;;;58.17;23.42;;;;;;;11.58;100.00;100587.28;5078754;28;20134;-67
2022/10/21 05:34:36;;;;;;;56.85;20.35;;;;;;;11.48;100.00;100582.72;5079442;28;20550;-67
2022/10/21 05:37:02;;;;;;;69.63;24.48;;;;;;;11.53;100.00;100585.91;5070931;28;20032;-69
2022/10/21 05:39:27;;;;;;;53.58;21.27;;;;;;;11.58;100.00;100589.09;5078361;28;20040;-68
2022/10/21 05:41:53;;;;;;;68.15;22.63;;;;;;;11.34;100.00;100587.22;5076580;28;20035;-67
2022/10/21 05:44:18;;;;;;;60.22;22.27;;;;;;;11.49;100.00;100579.06;5078302;28;20044;-68
2022/10/21 05:46:43;;;;;;;53.80;20.52;;;;;;;11.63;100.00;100581.63;5077045;28;20039;-68
2022/10/21 05:49:09;;;;;;;49.63;20.00;;;;;;;11.71;100.00;100573.06;5074861;28;20100;-68
2022/10/21 05:51:34;;;;;;;52.08;20.50;;;;;;;11.79;100.00;100574.19;5077569;28;20035;-67
2022/10/21 05:54:02;;;;;;;51.53;22.02;;;;;;;11.71;100.00;100584.59;5078884;28;20373;-67
2022/10/21 05:56:28;;;;;;;54.60;19.67;;;;;;;11.70;100.00;100579.34;5079558;28;20478;-68
2022/10/21 05:58:53;;;;;;;52.63;20.65;;;;;;;11.75;100.00;100582.56;5080636;28;20032;-69
2022/10/21 06:01:19;;;;;;;53.28;20.67;;;;;;;11.75;100.00;100577.22;5076831;28;20047;-68
2022/10/21 06:03:44;;;;;;;61.90;21.13;;;;;;;11.76;100.00;100570.91;5078515;28;20032;-68
2022/10/21 06:06:10;;;;;;;57.17;20.45;;;;;;;11.57;100.00;100577.56;5081177;28;20571;-68
2022/10/21 06:08:37;;;;;;;54.55;21.23;;;;;;;11.60;100.00;100574.69;5075127;28;20050;-67
2022/10/21 06:11:04;;;;;;;57.83;20.63;;;;;;;11.59;100.00;100575.63;5076880;28;20051;-68
2022/10/21 06:13:30;;;;;;;62.45;21.88;;;;;;;11.51;100.00;100577.16;5075326;28;20055;-68
2022/10/21 06:15:56;;;;;;;72.85;21.80;;;;;;;11.36;100.00;100576.44;5079958;28;20056;-67
2022/10/21 06:18:22;;;;;;;56.88;21.45;;;;;;;11.39;100.00;100573.53;5086737;28;20109;-68
2022/10/21 06:20:48;;;;;;;59.35;20.45;;;;;;;11.38;100.00;100571.84;5084410;28;20048;-68
2022/10/21 06:23:15;;;;;;;64.60;20.92;;;;;;;11.45;100.00;100573.13;5085792;28;20032;-68
2022/10/21 06:25:41;;;;;;;54.30;20.65;;;;;;;11.54;100.00;100569.75;5083343;28;20040;-69
2022/10/21 06:28:06;;;;;;;62.72;21.58;;;;;;;11.54;100.00;100576.94;5079669;28;20125;-68
2022/10/21 06:30:33;;;;;;;97.53;24.10;;;;;;;11.34;100.00;100575.69;5085051;28;20845;-68
2022/10/21 06:32:59;;;;;;;59.28;20.58;;;;;;;11.42;100.00;100565.31;5082487;28;20070;-69
2022/10/21 06:35:24;;;;;;;54.05;20.40;;;;;;;11.40;100.00;100565.44;5081960;28;20044;-69
2022/10/21 06:37:50;;;;;;;55.83;20.30;;;;;;;11.60;100.00;100569.34;5086684;28;20040;-70
2022/10/21 06:40:15;;;;;;;50.55;20.45;;;;;;;11.55;100.00;100567.97;5084871;28;20110;-68
2022/10/21 06:42:40;;;;;;;49.85;19.67;;;;;;;11.68;100.00;100563.44;5084273;28;20092;-70
2022/10/21 06:45:06;;;;;;;61.00;21.42;;;;;;;11.72;100.00;100570.28;5085998;28;20043;-69
2022/10/21 06:47:32;;;;;;;48.15;19.15;;;;;;;11.85;100.00;100568.47;5085687;28;20028;-69
2022/10/21 06:50:01;;;;;;;51.63;18.55;;;;;;;11.76;100.00;100573.59;5085254;28;20039;-69
2022/10/21 06:52:28;;;;;;;48.67;19.02;;;;;;;11.88;100.00;100567.38;5077869;28;20040;-69
2022/10/21 06:54:54;;;;;;;55.15;20.05;;;;;;;11.92;100.00;100576.88;5080690;28;20047;-69
2022/10/21 06:57:20;;;;;;;57.70;20.58;;;;;;;12.12;100.00;100578.06;5086255;28;20032;-68
2022/10/21 06:59:46;;;;;;;46.05;18.67;;;;;;;12.36;100.00;100583.41;5087279;28;20831;-68
2022/10/21 07:02:11;;;;;;;49.80;18.80;;;;;;;12.35;100.00;100592.38;5083746;28;20040;-69
2022/10/21 07:04:37;;;;;;;44.67;19.42;;;;;;;12.51;100.00;100587.63;5084940;28;20052;-68
2022/10/21 07:07:02;;;;;;;49.97;19.92;;;;;;;12.55;100.00;100593.56;5082491;28;20101;-69
2022/10/21 07:09:29;;;;;;;42.42;18.17;;;;;;;12.65;100.00;100584.75;5083486;28;20044;-69
2022/10/21 07:11:54;;;;;;;40.13;17.42;;;;;;;12.71;100.00;100583.44;5074474;28;20116;-69
2022/10/21 07:14:20;;;;;;;37.75;17.48;;;;;;;12.89;100.00;100589.16;5084738;28;20043;-68
2022/10/21 07:16:47;;;;;;;48.63;19.10;;;;;;;12.98;100.00;100587.63;5086397;28;20036;-68
2022/10/21 07:19:12;;;;;;;40.20;16.52;;;;;;;13.09;100.00;100587.63;5082694;28;20127;-69
2022/10/21 07:21:38;;;;;;;35.05;15.90;;;;;;;13.12;100.00;100598.94;5079798;28;20043;-69
2022/10/21 07:24:03;;;;;;;35.47;16.73;;;;;;;13.19;100.00;100605.53;5084619;28;20040;-68
2022/10/21 07:26:30;;;;;;;42.08;16.40;;;;;;;13.39;100.00;100613.84;5081563;28;20048;-69
2022/10/21 07:28:58;;;;;;;37.08;15.75;;;;;;;13.39;100.00;100617.38;5081815;28;20028;-70
2022/10/21 07:31:24;;;;;;;34.33;14.93;;;;;;;13.57;100.00;100622.28;5076337;28;20044;-69
2022/10/21 07:33:50;;;;;;;29.77;14.30;;;;;;;13.59;100.00;100626.53;5087601;28;20073;-68
2022/10/21 07:36:19;;;;;;;35.15;15.20;;;;;;;13.68;100.00;100624.94;5078644;28;20056;-69
2022/10/21 07:38:46;;;;;;;30.70;14.35;;;;;;;13.70;100.00;100623.88;5083490;28;20089;-69
2022/10/21 07:41:22;;;;;;;29.90;12.98;;;;;;;13.83;100.00;100628.22;5086376;28;20550;-69
2022/10/21 07:43:49;;;;;;;25.90;13.60;;;;;;;13.92;100.00;100627.50;5078913;28;20043;-69
2022/10/21 07:46:16;;;;;;;25.65;12.68;;;;;;;13.93;100.00;100626.50;5110922;27;20035;-69
2022/10/21 07:48:41;;;;;;;32.08;13.20;;;;;;;14.00;100.00;100620.50;5086354;28;20035;-69
2022/10/21 07:51:10;;;;;;;29.20;12.85;;;;;;;14.24;100.00;100623.03;5079149;28;20036;-69
2022/10/21 07:53:36;;;;;;;27.52;12.88;;;;;;;14.09;100.00;100613.56;5081699;28;20032;-70
2022/10/21 07:56:14;;;;;;;26.25;11.70;;;;;;;14.20;100.00;100615.34;5081154;28;20101;-69
2022/10/21 07:58:40;;;;;;;23.85;11.43;;;;;;;14.34;100.00;100611.53;5080432;28;20084;-70
2022/10/21 08:01:07;;;;;;;22.65;11.63;;;;;;;14.45;100.00;100615.03;5081607;28;20119;-70
2022/10/21 08:03:33;;;;;;;24.55;10.77;;;;;;;14.30;100.00;100615.44;5083503;28;20039;-69
2022/10/21 08:05:59;;;;;;;24.50;11.07;;;;;;;14.36;100.00;100628.38;5086632;28;20797;-70
2022/10/21 08:08:25;;;;;;;25.73;10.80;;;;;;;14.41;100.00;100628.84;5081564;28;20568;-69
2022/10/21 08:10:52;;;;;;;19.52;10.13;;;;;;;14.63;100.00;100626.09;5086644;28;20032;-70
2022/10/21 08:13:18;;;;;;;22.52;9.77;;;;;;;14.50;100.00;100620.03;5084445;28;20047;-70
2022/10/21 08:15:49;;;;;;;20.20;9.98;;;;;;;14.58;100.00;100624.78;5082827;28;20032;-69
2022/10/21 08:18:15;;;;;;;21.25;10.32;;;;;;;14.64;100.00;100618.91;5084168;28;20119;-69
2022/10/21 08:20:42;;;;;;;17.23;10.02;;;;;;;14.94;100.00;100615.44;5090849;28;20044;-68
2022/10/21 08:23:09;;;;;;;16.48;8.98;;;;;;;14.83;100.00;100613.69;5083890;28;20071;-67
2022/10/21 08:25:35;;;;;;;21.27;8.75;;;;;;;14.84;100.00;100612.69;5082973;28;20039;-67
2022/10/21 08:28:01;;;;;;;17.02;8.30;;;;;;;14.89;100.00;100610.47;5080720;28;20093;-68
2022/10/21 08:30:30;;;;;;;13.85;7.80;;;;;;;15.04;100.00;100605.63;5083051;28;20036;-68
2022/10/21 08:32:57;;;;;;;14.65;7.80;;;;;;;15.05;100.00;100609.16;5086044;28;20062;-66
2022/10/21 08:35:23;;;;;;;15.65;7.80;;;;;;;15.36;100.00;100604.66;5084480;28;20051;-68
2022/10/21 08:37:49;;;;;;;22.17;8.07;;;;;;;15.58;100.00;100612.56;5083432;28;20067;-67
2022/10/21 08:40:15;;;;;;;16.30;7.47;;;;;;;15.61;100.00;100601.50;5080011;28;20776;-67
2022/10/21 08:42:43;;;;;;;20.85;7.13;;;;;;;15.84;100.00;100604.03;5081345;28;20037;-70
2022/10/21 08:45:27;;;;;;;16.25;6.78;;;;;;;15.76;100.00;100620.84;5078850;28;20055;-68
2022/10/21 08:48:02;;;;;;;16.52;6.75;;;;;;;15.79;100.00;100604.44;5088450;28;20043;-67
2022/10/21 08:50:34;;;;;;;14.80;6.75;;;;;;;15.77;100.00;100603.75;5089560;28;20044;-68
2022/10/21 08:53:29;;;;;;;;;;;;;;;15.69;100.00;100603.56;5075189;28;20036;-69
2022/10/21 08:56:04;;;;;;;17.10;7.30;;;;;;;15.75;100.00;100605.72;5063460;28;19946;-67
2022/10/21 08:58:29;;;;;;;12.80;6.15;;;;;;;15.92;100.00;100606.91;5083064;28;20092;-67
2022/10/21 09:01:03;;;;;;;12.85;6.57;;;;;;;15.82;100.00;100611.41;5078141;28;20036;-67
2022/10/21 09:03:54;;;;;;;11.90;5.80;;;;;;;15.97;100.00;100605.50;5079243;28;20059;-66
2022/10/21 09:06:30;;;;;;;14.13;6.53;;;;;;;15.80;100.00;100609.69;5085694;28;20054;-68
2022/10/21 09:09:09;;;;;;;9.65;6.03;;;;;;;15.95;100.00;100601.25;5080299;28;20366;-67
2022/10/21 09:11:42;;;;;;;16.77;5.95;;;;;;;15.97;100.00;100602.81;5077780;28;20044;-67
2022/10/21 09:14:32;;;;;;;19.70;5.85;;;;;;;16.03;100.00;100615.72;5081649;28;20114;-67
2022/10/21 09:17:28;;;;;;;10.82;6.20;;;;;;;15.99;100.00;100619.66;5093912;28;20092;-68
2022/10/21 09:20:06;;;;;;;10.13;5.88;;;;;;;15.97;100.00;100620.78;5082277;28;20059;-67
2022/10/21 09:22:56;;;;;;;15.65;6.45;;;;;;;16.16;100.00;100628.03;5086025;28;20085;-67
2022/10/21 09:25:24;;;;;;;12.38;6.28;;;;;;;16.20;100.00;100626.78;5084508;28;20059;-68
2022/10/21 09:27:50;;;;;;;13.35;6.38;;;;;;;16.24;100.00;100634.44;5085317;28;20040;-68
2022/10/21 09:30:20;;;;;;;18.02;6.97;;;;;;;16.22;100.00;100631.03;5076385;28;20568;-67
2022/10/21 09:32:49;;;;;;;13.88;6.10;;;;;;;16.18;100.00;100626.94;5084131;28;20032;-68
2022/10/21 09:35:39;;;;;;;19.23;6.53;;;;;;;16.20;100.00;100621.41;5082408;28;20148;-67
2022/10/21 09:38:28;;;;;;;13.25;6.03;;;;;;;15.95;100.00;100628.97;5079354;28;20244;-68
2022/10/21 09:41:01;;;;;;;11.57;6.85;;;;;;;16.07;100.00;100631.59;5079272;28;20067;-67
2022/10/21 09:43:28;;;;;;;14.65;5.97;;;;;;;16.03;100.00;100634.53;5077141;28;20075;-67
2022/10/21 09:45:55;;;;;;;13.88;6.13;;;;;;;16.00;100.00;100648.25;5083115;28;20031;-68
2022/10/21 09:48:29;;;;;;;13.68;6.40;;;;;;;15.88;100.00;100659.25;5083229;28;20078;-67
2022/10/21 09:50:59;;;;;;;10.80;6.03;;;;;;;15.88;100.00;100664.63;5080581;28;20042;-74
2022/10/21 09:53:33;;;;;;;14.50;6.93;;;;;;;15.88;100.00;100667.31;5079590;28;20052;-66
2022/10/21 09:56:06;;;;;;;18.60;6.95;;;;;;;15.79;100.00;100660.91;5081254;28;20040;-68
2022/10/21 09:58:37;;;;;;;15.85;7.35;;;;;;;15.84;100.00;100665.91;5083225;28;20051;-66
2022/10/21 10:01:04;;;;;;;13.43;6.83;;;;;;;15.80;100.00;100671.53;5085947;28;20028;-66
2022/10/21 10:03:31;;;;;;;10.50;6.55;;;;;;;15.82;100.00;100662.50;5082594;28;20028;-67
2022/10/21 10:05:56;;;;;;;21.42;7.07;;;;;;;15.88;100.00;100662.78;5084281;28;20055;-67
2022/10/21 10:08:30;;;;;;;20.42;7.68;;;;;;;15.91;100.00;100658.97;5080986;28;20039;-68
2022/10/21 10:11:09;;;;;;;16.23;7.32;;;;;;;16.02;100.00;100664.28;5082227;28;20055;-68
2022/10/21 10:13:43;;;;;;;21.90;7.13;;;;;;;16.17;100.00;100662.91;5081271;28;20063;-68
2022/10/21 10:16:14;;;;;;;18.45;7.65;;;;;;;16.12;100.00;100661.63;5082490;28;20223;-67
2022/10/21 10:18:41;;;;;;;16.88;6.55;;;;;;;15.93;100.00;100660.56;5079708;28;20090;-67
2022/10/21 10:21:10;;;;;;;17.17;7.43;;;;;;;15.88;100.00;100668.19;5078122;28;20052;-68
2022/10/21 10:23:53;;;;;;;16.20;7.43;;;;;;;15.73;100.00;100675.75;5078170;28;20037;-68
2022/10/21 10:26:20;;;;;;;14.02;7.60;;;;;;;15.63;100.00;100685.63;5083572;28;20051;-67
2022/10/21 10:28:52;;;;;;;19.40;7.93;;;;;;;15.45;100.00;100685.31;5102471;28;20032;-66
2022/10/21 10:31:29;;;;;;;17.55;6.75;;;;;;;15.50;100.00;100687.63;5084266;28;20048;-68
2022/10/21 10:33:58;;;;;;;13.38;6.75;;;;;;;15.29;100.00;100688.47;5079503;28;20161;-68
2022/10/21 10:36:28;;;;;;;21.30;7.95;;;;;;;15.10;100.00;100690.19;5081076;28;20138;-67
2022/10/21 10:38:58;;;;;;;22.65;7.38;;;;;;;15.06;100.00;100678.00;5075206;28;20040;-67
2022/10/21 10:41:35;;;;;;;14.25;6.55;;;;;;;15.09;100.00;100672.38;5084168;28;20811;-67
2022/10/21 10:44:07;;;;;;;10.48;6.30;;;;;;;15.02;100.00;100680.09;5082294;28;20036;-69
2022/10/21 10:46:33;;;;;;;;;;;;;;;15.15;100.00;100682.59;5099189;28;20404;-67
2022/10/21 10:49:22;;;;;;;11.10;5.53;;;;;;;15.09;100.00;100685.78;5085863;28;19926;-68
2022/10/21 10:52:08;;;;;;;21.63;6.63;;;;;;;15.21;100.00;100682.94;5084968;28;20083;-66
2022/10/21 10:54:34;;;;;;;13.55;6.05;;;;;;;15.32;100.00;100691.91;5071898;28;20037;-68
2022/10/21 10:57:07;;;;;;;14.18;6.30;;;;;;;15.20;100.00;100701.84;5082119;28;20036;-68
2022/10/21 10:59:39;;;;;;;13.00;7.07;;;;;;;15.35;100.00;100697.00;5074212;28;20032;-68
2022/10/21 11:02:08;;;;;;;12.35;6.03;;;;;;;15.26;100.00;100699.50;5083019;28;20127;-68
2022/10/21 11:05:04;;;;;;;14.98;7.03;;;;;;;15.27;100.00;100703.03;5089242;28;20144;-68
2022/10/21 11:07:43;;;;;;;21.38;8.23;;;;;;;15.16;100.00;100703.09;5088513;28;20040;-68
2022/10/21 11:10:30;;;;;;;20.63;7.45;;;;;;;15.24;100.00;100698.78;5090786;28;20033;-68
2022/10/21 11:12:58;;;;;;;20.15;8.50;;;;;;;15.18;100.00;100693.94;5082122;28;20056;-68
2022/10/21 11:15:35;;;;;;;13.55;7.28;;;;;;;15.23;100.00;100691.69;5090371;28;20032;-70